createdAt,value
2022-12-17T09:16:00.193Z,20.50
2022-12-17T09:18:46.098Z,23.50
2022-12-17T09:21:31.975Z,26.13
2022-12-17T09:24:17.587Z,18.67
2022-12-17T09:27:03.241Z,26.40
2022-12-17T09:32:24.524Z,27.30
2022-12-17T09:35:09.951Z,24.02
2022-12-17T09:37:55.449Z,29.88
2022-12-17T09:40:43.337Z,28.92
2022-12-17T09:43:41.593Z,26.50
2022-12-17T09:46:49.145Z,25.38
2022-12-17T09:49:44.728Z,20.23
2022-12-17T09:52:40.195Z,19.95
2022-12-17T09:55:48.928Z,25.23
2022-12-17T09:58:43.651Z,24.98
2022-12-17T10:01:38.180Z,31.42
2022-12-17T10:07:12.157Z,28.50
2022-12-17T10:09:57.767Z,28.05
2022-12-17T10:12:43.748Z,23.25
2022-12-17T10:15:33.782Z,24.33
2022-12-17T10:18:29.247Z,23.20
2022-12-17T10:21:25.309Z,25.92
2022-12-17T10:24:23.029Z,26.30
2022-12-17T10:27:08.550Z,29.67
2022-12-17T10:29:54.559Z,23.10
2022-12-17T10:32:44.556Z,27.50
2022-12-17T10:35:38.908Z,22.25
2022-12-17T10:42:10.827Z,24.25
2022-12-17T10:44:57.258Z,30.25
2022-12-17T10:47:47.564Z,26.60
2022-12-17T10:50:37.692Z,20.35
2022-12-17T10:53:37.647Z,26.00
2022-12-17T10:56:24.436Z,24.88
2022-12-17T10:59:12.441Z,26.77
2022-12-17T11:01:58.974Z,23.85
2022-12-17T11:04:55.940Z,23.38
2022-12-17T11:07:52.935Z,27.58
2022-12-17T11:10:44.136Z,24.98
2022-12-17T11:13:52.361Z,21.20
2022-12-17T11:16:52.242Z,22.98
2022-12-17T11:19:50.610Z,23.33
2022-12-17T11:23:10.823Z,24.02
2022-12-17T11:26:20.816Z,22.58
2022-12-17T11:29:06.496Z,28.25
2022-12-17T11:32:10.348Z,22.50
2022-12-17T11:35:11.440Z,23.65
2022-12-17T11:38:17.926Z,33.10
2022-12-17T11:41:12.085Z,29.67
2022-12-17T11:44:18.737Z,32.00
2022-12-17T11:47:17.609Z,25.48
2022-12-17T11:50:31.595Z,21.35
2022-12-17T11:53:35.302Z,24.95
2022-12-17T11:56:34.887Z,23.70
2022-12-17T12:00:06.747Z,25.10
2022-12-17T12:03:08.092Z,24.65
2022-12-17T12:06:14.363Z,25.70
2022-12-17T12:09:20.500Z,26.17
2022-12-17T12:12:08.985Z,24.13
2022-12-17T12:15:03.574Z,27.45
2022-12-17T12:18:01.030Z,23.15
2022-12-17T12:27:26.496Z,26.55
2022-12-17T12:30:40.771Z,20.73
2022-12-17T12:33:41.233Z,21.98
2022-12-17T13:04:08.068Z,20.40
2022-12-17T13:06:55.253Z,23.05
2022-12-17T13:09:32.493Z,28.85
2022-12-17T13:12:04.883Z,22.25
2022-12-17T13:14:59.900Z,23.27
2022-12-17T13:17:29.464Z,18.70
2022-12-17T13:19:56.456Z,24.08
2022-12-17T13:22:24.472Z,19.75
2022-12-17T13:24:54.478Z,22.60
2022-12-17T13:27:32.148Z,25.83
2022-12-17T13:30:14.652Z,25.55
2022-12-17T13:32:55.613Z,23.25
2022-12-17T13:35:50.021Z,22.27
2022-12-17T13:38:44.784Z,23.10
2022-12-17T13:44:36.483Z,30.58
2022-12-17T13:47:03.624Z,23.55
2022-12-17T13:49:31.950Z,24.67
2022-12-17T13:52:18.090Z,26.98
2022-12-17T13:54:45.212Z,23.15
2022-12-17T13:57:19.336Z,22.05
2022-12-17T14:02:27.383Z,23.75
2022-12-17T14:04:56.859Z,25.10
2022-12-17T14:07:27.679Z,22.30
2022-12-17T14:09:55.905Z,22.73
2022-12-17T14:12:26.719Z,27.40
2022-12-17T14:15:00.395Z,25.40
2022-12-17T14:17:35.917Z,25.23
2022-12-17T14:20:04.698Z,25.10
2022-12-17T14:22:37.450Z,26.23
2022-12-17T14:25:07.253Z,26.88
2022-12-17T14:27:36.774Z,23.17
2022-12-17T14:30:21.885Z,22.67
2022-12-17T14:32:49.497Z,26.50
2022-12-17T14:35:34.026Z,25.70
2022-12-17T14:38:01.203Z,29.08
2022-12-17T14:40:28.351Z,23.63
2022-12-17T14:43:00.277Z,23.98
2022-12-17T14:45:28.953Z,21.95
2022-12-17T14:48:02.305Z,26.13
2022-12-17T14:50:37.027Z,26.38
2022-12-17T14:53:24.432Z,22.33
2022-12-17T14:55:59.159Z,24.10
2022-12-17T14:58:27.803Z,29.38
2022-12-17T15:01:08.341Z,25.98
2022-12-17T15:03:41.217Z,21.60
2022-12-17T15:06:12.193Z,22.40
2022-12-17T15:08:45.295Z,22.05
2022-12-17T15:11:19.155Z,22.77
2022-12-17T15:13:54.614Z,23.98
2022-12-17T15:16:24.594Z,21.90
2022-12-17T15:19:01.050Z,20.98
2022-12-17T15:21:28.119Z,22.75
2022-12-17T15:24:02.857Z,19.70
2022-12-17T15:26:32.207Z,20.70
2022-12-17T15:29:00.916Z,18.83
2022-12-17T15:31:33.523Z,21.88
2022-12-17T15:34:05.337Z,28.02
2022-12-17T15:36:36.522Z,24.77
2022-12-17T15:39:06.470Z,25.65
2022-12-17T15:41:52.265Z,22.65
2022-12-17T15:44:24.259Z,21.23
2022-12-17T15:47:00.523Z,21.20
2022-12-17T15:49:27.721Z,23.10
2022-12-17T15:51:55.814Z,25.60
2022-12-17T15:54:29.117Z,20.13
2022-12-17T15:56:59.872Z,20.15
2022-12-17T15:59:27.307Z,20.65
2022-12-17T16:01:56.448Z,17.45
2022-12-17T16:04:25.450Z,16.85
2022-12-17T16:06:52.704Z,22.75
2022-12-17T16:09:20.036Z,21.63
2022-12-17T16:11:49.790Z,16.90
2022-12-17T16:14:16.909Z,23.33
2022-12-17T16:16:44.026Z,19.83
2022-12-17T16:19:11.120Z,19.85
2022-12-17T16:21:47.624Z,20.50
2022-12-17T16:24:15.370Z,19.20
2022-12-17T16:26:42.449Z,17.83
2022-12-17T16:29:12.039Z,17.58
2022-12-17T16:31:39.299Z,18.67
2022-12-17T16:34:12.876Z,18.40
2022-12-17T16:36:40.030Z,22.58
2022-12-17T16:39:07.518Z,16.20
2022-12-17T16:41:34.848Z,17.77
2022-12-17T16:44:01.980Z,19.23
2022-12-17T16:46:33.634Z,18.95
2022-12-17T16:49:09.626Z,20.13
2022-12-17T16:51:37.007Z,20.55
2022-12-17T16:54:09.423Z,21.27
2022-12-17T16:56:40.299Z,16.27
2022-12-17T16:59:08.892Z,22.58
2022-12-17T17:01:36.992Z,17.60
2022-12-17T17:04:08.389Z,20.67
2022-12-17T17:06:47.011Z,22.20
2022-12-17T17:09:14.961Z,20.73
2022-12-17T17:11:44.806Z,21.08
2022-12-17T17:14:15.452Z,18.00
2022-12-17T17:16:42.787Z,20.65
2022-12-17T17:19:09.847Z,20.50
2022-12-17T17:21:38.985Z,17.40
2022-12-17T17:24:18.467Z,18.65
2022-12-17T17:26:48.360Z,21.88
2022-12-17T17:29:15.485Z,18.75
2022-12-17T17:34:29.631Z,19.00
2022-12-17T17:36:56.660Z,20.27
2022-12-17T17:39:23.736Z,19.55
2022-12-17T17:41:50.778Z,18.98
2022-12-17T17:44:17.932Z,20.10
2022-12-17T17:46:45.511Z,15.73
2022-12-17T17:49:12.788Z,15.40
2022-12-17T17:54:29.811Z,18.73
2022-12-17T17:56:56.885Z,16.77
2022-12-17T17:59:29.363Z,19.52
2022-12-17T18:01:59.237Z,17.77
2022-12-17T18:04:26.467Z,17.20
2022-12-17T18:07:23.648Z,22.35
2022-12-17T18:09:41.021Z,17.65
2022-12-17T18:12:26.479Z,22.30
2022-12-17T18:17:40.688Z,18.52
2022-12-17T18:20:09.861Z,22.35
2022-12-17T18:22:38.099Z,21.77
2022-12-17T18:25:05.833Z,21.65
2022-12-17T18:27:33.924Z,15.50
2022-12-17T18:30:00.942Z,26.42
2022-12-17T18:32:27.974Z,20.23
2022-12-17T18:34:55.073Z,15.73
2022-12-17T18:37:22.141Z,13.35
2022-12-17T18:39:49.387Z,18.38
2022-12-17T18:42:36.356Z,19.77
2022-12-17T18:45:03.762Z,22.67
2022-12-17T18:47:32.605Z,16.95
2022-12-17T18:49:59.683Z,15.23
2022-12-17T18:52:28.394Z,18.17
2022-12-17T18:54:55.420Z,20.27
2022-12-17T18:57:22.642Z,16.83
2022-12-17T18:59:49.859Z,20.60
2022-12-17T19:02:17.180Z,15.00
2022-12-17T19:04:47.481Z,26.52
2022-12-17T19:07:21.895Z,22.98
2022-12-17T19:09:50.174Z,18.38
2022-12-17T19:12:17.218Z,17.38
2022-12-17T19:14:44.210Z,17.35
2022-12-17T19:17:13.996Z,20.40
2022-12-17T19:19:41.026Z,17.05
2022-12-17T19:22:08.622Z,23.65
2022-12-17T19:24:35.629Z,14.48
2022-12-17T19:27:02.700Z,15.93
2022-12-17T19:29:29.733Z,13.60
2022-12-17T19:31:58.443Z,16.38
2022-12-17T19:34:25.488Z,20.30
2022-12-17T19:36:52.557Z,20.20
2022-12-17T19:39:20.451Z,16.75
2022-12-17T19:41:50.486Z,17.45
2022-12-17T19:44:18.172Z,15.43
2022-12-17T19:46:45.445Z,16.60
2022-12-17T19:49:14.148Z,16.95
2022-12-17T19:51:44.383Z,16.60
2022-12-17T19:54:15.525Z,16.55
2022-12-17T19:56:45.127Z,14.88
2022-12-17T19:59:13.333Z,17.40
2022-12-17T20:01:43.655Z,17.05
2022-12-17T20:04:16.075Z,15.70
2022-12-17T20:06:44.348Z,15.40
2022-12-17T20:09:12.198Z,14.65
2022-12-17T20:11:40.112Z,17.55
2022-12-17T20:14:11.741Z,16.50
2022-12-17T20:16:42.657Z,13.65
2022-12-17T20:19:14.510Z,14.60
2022-12-17T20:21:41.775Z,16.13
2022-12-17T20:24:10.080Z,13.00
2022-12-17T20:26:37.202Z,14.10
2022-12-17T20:29:05.227Z,13.50
2022-12-17T20:31:33.188Z,13.25
2022-12-17T20:34:06.202Z,13.13
2022-12-17T20:36:33.833Z,14.85
2022-12-17T20:39:01.422Z,13.02
2022-12-17T20:41:31.284Z,17.15
2022-12-17T20:43:58.370Z,12.43
2022-12-17T20:46:26.549Z,12.63
2022-12-17T20:48:53.824Z,16.83
2022-12-17T20:51:24.737Z,16.77
2022-12-17T20:53:53.660Z,12.18
2022-12-17T20:56:24.212Z,12.80
2022-12-17T20:58:56.685Z,17.10
2022-12-17T21:01:27.514Z,14.27
2022-12-17T21:03:56.248Z,9.57
2022-12-17T21:06:27.752Z,9.88
2022-12-17T21:08:55.933Z,10.65
2022-12-17T21:11:25.599Z,12.90
2022-12-17T21:13:53.893Z,12.95
2022-12-17T21:16:31.728Z,11.68
2022-12-17T21:19:00.846Z,12.88
2022-12-17T21:21:32.881Z,11.15
2022-12-17T21:24:01.431Z,16.05
2022-12-17T21:26:31.775Z,11.88
2022-12-17T21:28:59.699Z,12.07
2022-12-17T21:31:40.848Z,9.73
2022-12-17T21:34:11.805Z,14.73
2022-12-17T21:36:39.434Z,13.45
2022-12-17T21:39:09.520Z,16.90
2022-12-17T21:41:44.048Z,13.15
2022-12-17T21:44:14.491Z,11.88
2022-12-17T21:46:43.009Z,12.20
2022-12-17T21:49:10.750Z,11.93
2022-12-17T21:51:38.250Z,17.83
2022-12-17T21:54:08.622Z,11.55
2022-12-17T21:56:36.678Z,14.88
2022-12-17T21:59:03.790Z,14.75
2022-12-17T22:01:34.246Z,11.85
2022-12-17T22:04:03.555Z,12.68
2022-12-17T22:06:36.369Z,13.20
2022-12-17T22:09:19.855Z,12.30
2022-12-17T22:12:20.602Z,11.82
2022-12-17T22:14:47.777Z,13.55
2022-12-17T22:17:14.829Z,12.90
2022-12-17T22:19:41.927Z,15.10
2022-12-17T22:22:10.040Z,11.93
2022-12-17T22:24:37.055Z,12.98
2022-12-17T22:27:05.125Z,12.20
2022-12-17T22:29:55.174Z,10.90
2022-12-17T22:32:40.650Z,16.23
2022-12-17T22:36:25.824Z,11.23
2022-12-17T22:40:37.924Z,12.68
2022-12-17T22:44:31.665Z,10.85
2022-12-17T22:44:42.957Z,11.00
2022-12-17T22:46:18.268Z,10.95
2022-12-17T22:48:45.657Z,13.73
2022-12-17T22:51:14.909Z,13.73
2022-12-17T22:53:46.552Z,12.50
2022-12-17T22:56:24.893Z,13.50
2022-12-17T22:59:00.899Z,12.68
2022-12-17T23:01:28.515Z,11.55
2022-12-17T23:03:59.449Z,12.27
2022-12-17T23:06:26.844Z,9.30
2022-12-17T23:08:54.741Z,13.50
2022-12-17T23:11:26.574Z,14.70
2022-12-17T23:13:55.023Z,10.88
2022-12-17T23:16:23.779Z,13.75
2022-12-17T23:18:52.131Z,10.93
2022-12-17T23:21:25.273Z,14.18
2022-12-17T23:23:53.700Z,13.93
2022-12-17T23:26:24.593Z,12.35
2022-12-17T23:28:58.361Z,11.73
2022-12-17T23:31:27.869Z,11.63
2022-12-17T23:33:55.377Z,13.20
2022-12-17T23:36:24.660Z,14.73
2022-12-17T23:38:53.039Z,12.73
2022-12-17T23:41:22.882Z,13.98
2022-12-17T23:43:50.698Z,13.65
2022-12-17T23:46:18.818Z,13.02
2022-12-17T23:48:48.361Z,15.95
2022-12-17T23:51:17.349Z,13.27
2022-12-17T23:53:44.784Z,13.10
2022-12-17T23:56:16.217Z,13.38
2022-12-17T23:58:44.306Z,10.90
